Time;durP1;ratioP1;P1;durP2;ratioP2;P2;SDS_P1;SDS_P2;PMS_P1;PMS_P2;Temp;Humidity;BMP_temperature;BMP_pressure;BME280_temperature;BME280_humidity;BME280_pressure;Samples;Min_cycle;Max_cycle;Signal;HPM_P1;HPM_P2
2022/11/22 00:01:09;;;;;;;;;;;18.40;59.30;;;;;;4922392;28;20371;-71
2022/11/22 00:03:35;;;;;;;;;;;18.40;57.90;;;;;;4940528;28;19964;-71
2022/11/22 00:06:02;;;;;;;;;;;18.40;58.20;;;;;;4940064;28;20268;-71
2022/11/22 00:08:28;;;;;;;;;;;18.20;57.90;;;;;;4938713;28;20272;-71
2022/11/22 00:10:55;;;;;;;;;;;18.20;58.20;;;;;;4939754;28;19922;-73
2022/11/22 00:13:22;;;;;;;;;;;18.20;59.00;;;;;;4938419;28;19922;-72
2022/11/22 00:15:58;;;;;;;;;;;18.40;59.00;;;;;;4940017;28;20351;-73
2022/11/22 00:18:25;;;;;;;;;;;18.50;58.40;;;;;;4938638;28;19914;-71
2022/11/22 00:20:51;;;;;;;;;;;18.80;57.00;;;;;;4939713;28;20348;-72
2022/11/22 00:23:18;;;;;;;;;;;18.90;57.20;;;;;;4938860;28;19922;-68
2022/11/22 00:25:45;;;;;;;;;;;19.10;56.10;;;;;;4939413;28;19914;-70
2022/11/22 00:28:11;;;;;;;;;;;19.10;56.90;;;;;;4939729;28;20779;-70
2022/11/22 00:30:38;;;;;;;;;;;19.20;57.30;;;;;;4940073;28;20359;-71
2022/11/22 00:33:04;;;;;;;;;;;19.30;55.80;;;;;;4938865;28;20394;-71
2022/11/22 00:35:31;;;;;;;;;;;19.30;56.90;;;;;;4938290;28;19910;-71
2022/11/22 00:37:58;;;;;;;;;;;19.40;56.30;;;;;;4939238;28;19919;-74
2022/11/22 00:40:24;;;;;;;;;;;19.30;55.80;;;;;;4921764;28;19911;-71
2022/11/22 00:42:51;;;;;;;;;;;19.40;56.30;;;;;;4938644;28;19957;-73
2022/11/22 00:45:18;;;;;;;;;;;19.50;54.70;;;;;;4938189;28;19954;-76
2022/11/22 00:47:44;;;;;;;;;;;19.50;54.90;;;;;;4939868;28;19918;-72
2022/11/22 00:50:11;;;;;;;;;;;19.50;54.90;;;;;;4938813;28;19931;-72
2022/11/22 00:52:37;;;;;;;;;;;19.70;55.30;;;;;;4937950;28;19930;-71
2022/11/22 00:55:04;;;;;;;;;;;19.70;55.40;;;;;;4938164;28;19918;-70
2022/11/22 00:57:31;;;;;;;;;;;19.80;55.20;;;;;;4938406;28;19922;-71
2022/11/22 00:59:57;;;;;;;;;;;19.80;55.20;;;;;;5017608;28;19972;-72
2022/11/22 01:02:24;;;;;;;;;;;19.80;54.60;;;;;;5020599;28;20321;-72
2022/11/22 01:04:51;;;;;;;;;;;19.90;54.40;;;;;;4938374;28;19953;-72
2022/11/22 01:07:17;;;;;;;;;;;19.90;54.50;;;;;;4939144;28;19911;-71
2022/11/22 01:09:44;;;;;;;;;;;20.20;53.50;;;;;;4938599;28;19934;-71
2022/11/22 01:12:10;;;;;;;;;;;20.20;54.40;;;;;;4939544;28;19911;-71
2022/11/22 01:14:37;;;;;;;;;;;20.40;53.60;;;;;;4930565;28;19968;-71
2022/11/22 01:17:04;;;;;;;;;;;20.70;53.80;;;;;;4938426;28;19958;-70
2022/11/22 01:19:30;;;;;;;;;;;20.90;52.60;;;;;;4937927;28;19911;-72
2022/11/22 01:21:57;;;;;;;;;;;21.00;51.20;;;;;;4935908;28;19914;-70
2022/11/22 01:24:24;;;;;;;;;;;20.90;51.30;;;;;;4938669;28;19914;-74
2022/11/22 01:26:51;;;;;;;;;;;21.00;51.60;;;;;;4959135;28;20260;-72
2022/11/22 01:29:17;;;;;;;;;;;21.10;51.10;;;;;;4939537;28;19980;-71
2022/11/22 01:31:44;;;;;;;;;;;21.40;53.00;;;;;;4939097;28;19919;-70
2022/11/22 01:34:10;;;;;;;;;;;21.60;52.10;;;;;;4943248;28;20001;-72
2022/11/22 01:36:37;;;;;;;;;;;21.70;52.50;;;;;;4939880;28;19917;-72
2022/11/22 01:39:04;;;;;;;;;;;21.80;52.00;;;;;;4941745;28;19925;-71
2022/11/22 01:41:30;;;;;;;;;;;21.90;51.00;;;;;;4937281;28;19998;-70
2022/11/22 01:43:57;;;;;;;;;;;21.90;50.90;;;;;;4936128;28;19914;-74
2022/11/22 01:46:27;;;;;;;;;;;22.00;50.40;;;;;;4938947;28;19941;-73
2022/11/22 01:49:01;;;;;;;;;;;22.10;51.30;;;;;;4936749;28;19920;-73
2022/11/22 01:51:30;;;;;;;;;;;22.30;51.20;;;;;;4938042;28;19915;-70
2022/11/22 01:53:59;;;;;;;;;;;22.70;51.80;;;;;;4936906;28;20329;-70
2022/11/22 01:56:27;;;;;;;;;;;22.90;50.70;;;;;;4937441;28;19914;-71
2022/11/22 01:58:56;;;;;;;;;;;22.90;51.40;;;;;;5020052;28;20378;-72
2022/11/22 02:01:23;;;;;;;;;;;23.00;50.20;;;;;;4922022;28;19918;-73
2022/11/22 02:03:51;;;;;;;;;;;23.30;50.60;;;;;;5009863;28;19961;-72
2022/11/22 02:06:37;;;;;;;;;;;23.30;50.60;;;;;;5085463;27;19916;-71
2022/11/22 02:09:06;;;;;;;;;;;23.40;51.50;;;;;;5085948;28;19966;-72
2022/11/22 02:11:36;;;;;;;;;;;23.30;50.40;;;;;;5072527;28;19908;-73
2022/11/22 02:14:03;;;;;;;;;;;23.20;51.20;;;;;;5074856;28;19921;-74
2022/11/22 02:16:30;;;;;;;;;;;23.10;50.90;;;;;;5075067;28;19955;-73
2022/11/22 02:18:57;;;;;;;;;;;23.30;50.80;;;;;;5075279;28;20022;-73
2022/11/22 02:21:23;;;;;;;;;;;23.30;50.20;;;;;;5075820;28;19915;-69
2022/11/22 02:24:03;;;;;;;;;;;23.20;50.60;;;;;;5073994;28;19915;-72
2022/11/22 02:26:30;;;;;;;;;;;23.40;50.80;;;;;;5075249;28;19927;-69
2022/11/22 02:29:01;;;;;;;;;;;23.40;50.40;;;;;;5075660;28;19909;-72
2022/11/22 02:31:35;;;;;;;;;;;23.50;50.80;;;;;;5075674;28;19958;-72
2022/11/22 02:34:01;;;;;;;;;;;23.70;51.60;;;;;;5075070;28;19981;-72
2022/11/22 02:36:29;;;;;;;;;;;24.00;49.50;;;;;;5075576;28;20418;-71
2022/11/22 02:38:56;;;;;;;;;;;24.30;48.80;;;;;;5075040;28;20593;-70
2022/11/22 02:41:23;;;;;;;;;;;24.40;48.10;;;;;;5074494;28;19962;-72
2022/11/22 02:43:49;;;;;;;;;;;24.50;48.90;;;;;;5072502;28;20400;-70
2022/11/22 02:46:19;;;;;;;;;;;24.80;47.80;;;;;;5074601;28;19917;-71
2022/11/22 02:48:46;;;;;;;;;;;25.20;47.70;;;;;;5074047;28;19916;-69
2022/11/22 02:51:18;;;;;;;;;;;25.90;47.40;;;;;;5074494;28;19955;-71
2022/11/22 02:53:46;;;;;;;;;;;26.60;47.10;;;;;;5073871;28;20434;-71
2022/11/22 02:56:12;;;;;;;;;;;27.50;46.90;;;;;;5074157;28;20272;-70
2022/11/22 02:58:39;;;;;;;;;;;27.80;45.90;;;;;;5073053;28;19916;-71
2022/11/22 03:01:06;;;;;;;;;;;28.20;45.90;;;;;;5074907;28;20101;-71
2022/11/22 03:03:32;;;;;;;;;;;28.80;45.80;;;;;;5074516;28;19909;-72
2022/11/22 03:06:01;;;;;;;;;;;29.60;45.10;;;;;;5073808;28;19924;-73
2022/11/22 03:08:28;;;;;;;;;;;30.00;44.80;;;;;;5073615;28;20545;-71
2022/11/22 03:10:57;;;;;;;;;;;30.40;44.20;;;;;;5072910;28;20326;-71
2022/11/22 03:13:23;;;;;;;;;;;30.90;44.20;;;;;;5073508;28;19926;-70
2022/11/22 03:15:50;;;;;;;;;;;31.20;43.50;;;;;;5070386;28;20484;-71
2022/11/22 03:18:17;;;;;;;;;;;31.70;42.30;;;;;;5060482;28;19916;-69
2022/11/22 03:20:43;;;;;;;;;;;32.20;42.50;;;;;;5059662;28;20105;-70
2022/11/22 03:23:10;;;;;;;;;;;32.20;42.30;;;;;;5061161;28;19916;-71
2022/11/22 03:25:37;;;;;;;;;;;32.20;41.80;;;;;;5060821;28;20373;-70
2022/11/22 03:28:04;;;;;;;;;;;32.80;42.70;;;;;;5060592;28;19944;-70
2022/11/22 03:30:30;;;;;;;;;;;32.90;41.70;;;;;;5060040;28;20361;-69
2022/11/22 03:32:57;;;;;;;;;;;33.30;41.30;;;;;;5058245;28;20376;-71
2022/11/22 03:35:23;;;;;;;;;;;32.20;42.00;;;;;;5059891;28;19919;-71
2022/11/22 03:37:50;;;;;;;;;;;33.20;42.20;;;;;;5058938;28;19947;-70
2022/11/22 03:40:17;;;;;;;;;;;34.00;41.80;;;;;;5060206;28;19908;-70
2022/11/22 03:42:43;;;;;;;;;;;34.70;40.80;;;;;;5059591;28;19978;-72
2022/11/22 03:45:10;;;;;;;;;;;34.70;40.10;;;;;;5060334;28;19913;-69
2022/11/22 03:47:37;;;;;;;;;;;34.40;40.30;;;;;;5059416;28;20007;-70
2022/11/22 03:50:04;;;;;;;;;;;34.40;40.30;;;;;;5089883;28;19912;-72
2022/11/22 03:52:31;;;;;;;;;;;33.80;41.10;;;;;;5058631;28;19920;-71
2022/11/22 03:54:57;;;;;;;;;;;33.60;40.40;;;;;;5058573;28;19912;-70
2022/11/22 03:57:24;;;;;;;;;;;34.00;40.80;;;;;;5059907;28;19908;-68
2022/11/22 03:59:51;;;;;;;;;;;34.40;40.30;;;;;;5058127;28;19915;-74
2022/11/22 04:02:17;;;;;;;;;;;34.00;40.20;;;;;;5059614;28;19912;-74
2022/11/22 04:04:44;;;;;;;;;;;34.10;40.40;;;;;;5058927;28;20250;-73
2022/11/22 04:07:10;;;;;;;;;;;34.40;40.30;;;;;;5060011;28;19940;-68
2022/11/22 04:09:37;;;;;;;;;;;34.90;40.00;;;;;;5058948;28;19912;-69
2022/11/22 04:12:04;;;;;;;;;;;34.80;39.80;;;;;;5058570;28;19919;-70
2022/11/22 04:17:39;;;;;;;;;;;34.20;40.10;;;;;;5058612;28;20033;-71
2022/11/22 04:22:54;;;;;;;;;;;34.80;40.80;;;;;;5056752;28;20194;-72
2022/11/22 04:25:21;;;;;;;;;;;34.80;39.80;;;;;;5056981;28;19920;-71
2022/11/22 04:27:47;;;;;;;;;;;34.30;40.10;;;;;;5058510;28;19912;-72
2022/11/22 04:30:14;;;;;;;;;;;34.10;40.70;;;;;;5058108;28;20090;-70
2022/11/22 04:32:46;;;;;;;;;;;34.30;41.10;;;;;;5058661;28;19915;-72
2022/11/22 04:35:14;;;;;;;;;;;34.50;39.90;;;;;;5046029;28;20082;-74
2022/11/22 04:37:41;;;;;;;;;;;34.30;41.30;;;;;;5057951;28;20280;-71
2022/11/22 04:40:09;;;;;;;;;;;34.50;40.80;;;;;;5057406;28;19920;-71
2022/11/22 04:45:20;;;;;;;;;;;35.20;39.90;;;;;;5057726;28;19928;-71
2022/11/22 04:47:59;;;;;;;;;;;35.20;41.00;;;;;;5059251;28;19919;-71
2022/11/22 04:53:10;;;;;;;;;;;36.10;40.20;;;;;;5057683;28;19920;-71
2022/11/22 04:55:37;;;;;;;;;;;36.40;39.00;;;;;;5055867;28;19912;-72
2022/11/22 04:58:04;;;;;;;;;;;35.70;39.80;;;;;;5058857;28;19919;-71
2022/11/22 05:00:31;;;;;;;;;;;35.70;40.20;;;;;;5055875;28;19938;-72
2022/11/22 05:02:58;;;;;;;;;;;36.20;40.10;;;;;;5058019;28;20380;-70
2022/11/22 05:05:25;;;;;;;;;;;36.30;40.00;;;;;;5057368;28;19928;-70
2022/11/22 05:07:51;;;;;;;;;;;36.40;40.30;;;;;;5058637;28;19923;-70
2022/11/22 05:10:18;;;;;;;;;;;36.10;40.30;;;;;;5053912;28;19912;-70
2022/11/22 05:12:45;;;;;;;;;;;35.30;40.40;;;;;;5057483;28;19916;-70
2022/11/22 05:15:11;;;;;;;;;;;34.70;41.10;;;;;;5050009;28;19913;-71
2022/11/22 05:17:38;;;;;;;;;;;34.40;41.50;;;;;;5051441;28;19938;-71
2022/11/22 05:20:06;;;;;;;;;;;34.60;40.60;;;;;;5056848;28;19913;-71
2022/11/22 05:25:18;;;;;;;;;;;33.60;41.20;;;;;;5054919;28;19969;-70
2022/11/22 05:27:44;;;;;;;;;;;33.50;40.50;;;;;;5050241;28;20510;-70
2022/11/22 05:30:11;;;;;;;;;;;33.70;40.60;;;;;;5052566;28;19939;-72
2022/11/22 05:32:38;;;;;;;;;;;34.10;40.40;;;;;;5053212;28;19916;-70
2022/11/22 05:35:04;;;;;;;;;;;33.60;40.70;;;;;;5057130;28;19977;-73
2022/11/22 05:37:31;;;;;;;;;;;33.40;40.70;;;;;;5056638;28;19913;-73
2022/11/22 05:39:58;;;;;;;;;;;32.60;41.10;;;;;;5056591;28;19913;-73
2022/11/22 05:42:24;;;;;;;;;;;32.50;41.50;;;;;;5056393;28;19920;-75
2022/11/22 05:44:51;;;;;;;;;;;32.10;42.00;;;;;;5048184;28;19934;-72
2022/11/22 05:47:18;;;;;;;;;;;32.60;41.90;;;;;;5089498;28;19909;-73
2022/11/22 05:49:45;;;;;;;;;;;32.60;42.20;;;;;;5055245;28;19958;-71
2022/11/22 05:52:12;;;;;;;;;;;32.50;42.40;;;;;;5057844;28;19943;-70
2022/11/22 05:54:38;;;;;;;;;;;32.50;42.10;;;;;;5054347;28;20387;-74
2022/11/22 05:57:05;;;;;;;;;;;32.00;42.50;;;;;;5057344;28;20007;-74
2022/11/22 05:59:32;;;;;;;;;;;31.20;43.00;;;;;;5055716;28;19957;-71
2022/11/22 06:01:59;;;;;;;;;;;30.60;44.70;;;;;;5056300;28;20022;-73
2022/11/22 06:04:26;;;;;;;;;;;29.80;44.40;;;;;;5055686;28;19920;-72
2022/11/22 06:06:53;;;;;;;;;;;29.20;45.30;;;;;;5052992;28;19943;-72
2022/11/22 06:09:20;;;;;;;;;;;28.50;45.60;;;;;;5057063;28;19919;-70
2022/11/22 06:11:46;;;;;;;;;;;28.20;46.00;;;;;;5056224;28;19908;-74
2022/11/22 06:14:13;;;;;;;;;;;27.50;46.80;;;;;;5057176;28;19913;-70
2022/11/22 06:16:40;;;;;;;;;;;26.90;47.30;;;;;;5055041;28;19916;-71
2022/11/22 06:19:07;;;;;;;;;;;26.90;48.10;;;;;;5090687;28;19912;-71
2022/11/22 06:21:33;;;;;;;;;;;26.90;48.10;;;;;;5057128;28;19909;-74
2022/11/22 06:24:00;;;;;;;;;;;26.80;47.70;;;;;;5056656;28;19912;-70
2022/11/22 06:26:27;;;;;;;;;;;26.50;48.00;;;;;;5056904;28;19925;-69
2022/11/22 06:28:54;;;;;;;;;;;26.50;48.00;;;;;;5054695;28;19935;-74
2022/11/22 06:31:25;;;;;;;;;;;26.30;48.90;;;;;;5056535;28;19962;-72
2022/11/22 06:33:55;;;;;;;;;;;26.20;48.10;;;;;;5052778;28;19915;-73
2022/11/22 06:36:26;;;;;;;;;;;26.00;48.50;;;;;;5054898;28;19915;-73
2022/11/22 06:38:53;;;;;;;;;;;25.90;48.30;;;;;;5055937;28;19908;-74
2022/11/22 06:41:20;;;;;;;;;;;25.80;48.60;;;;;;5057386;28;19916;-75
2022/11/22 06:43:48;;;;;;;;;;;25.80;49.40;;;;;;5055813;28;19912;-72
2022/11/22 06:46:15;;;;;;;;;;;25.80;49.20;;;;;;5057794;28;19916;-72
2022/11/22 06:48:42;;;;;;;;;;;25.80;48.90;;;;;;5056863;28;20003;-71
2022/11/22 06:51:10;;;;;;;;;;;25.80;48.80;;;;;;5056134;28;19912;-74
2022/11/22 06:53:38;;;;;;;;;;;25.70;49.10;;;;;;5060264;28;19915;-75
2022/11/22 06:56:06;;;;;;;;;;;25.70;49.30;;;;;;5059294;28;19908;-73
2022/11/22 06:58:32;;;;;;;;;;;25.70;49.20;;;;;;5060113;28;19908;-77
2022/11/22 07:01:06;;;;;;;;;;;25.60;49.00;;;;;;5058951;28;19973;-72
2022/11/22 07:03:36;;;;;;;;;;;25.50;49.40;;;;;;5060141;28;19986;-75
2022/11/22 07:06:03;;;;;;;;;;;25.10;49.70;;;;;;5059348;28;19920;-74
2022/11/22 07:08:30;;;;;;;;;;;24.80;50.60;;;;;;5060761;28;20270;-74
2022/11/22 07:11:09;;;;;;;;;;;24.90;50.40;;;;;;5060358;28;19919;-74
2022/11/22 07:13:36;;;;;;;;;;;25.00;50.60;;;;;;5061116;28;19912;-72
2022/11/22 07:16:04;;;;;;;;;;;25.00;50.20;;;;;;5059642;28;19999;-73
2022/11/22 07:18:31;;;;;;;;;;;24.90;50.70;;;;;;5061813;28;20425;-72
2022/11/22 07:21:01;;;;;;;;;;;24.80;50.60;;;;;;5060011;28;19913;-76
2022/11/22 07:23:29;;;;;;;;;;;24.70;50.50;;;;;;5061587;28;19943;-76
2022/11/22 07:25:56;;;;;;;;;;;24.40;51.10;;;;;;5058080;28;19929;-71
2022/11/22 07:28:22;;;;;;;;;;;24.20;51.40;;;;;;5060941;28;19912;-72
2022/11/22 07:30:49;;;;;;;;;;;24.10;51.60;;;;;;5054552;28;19919;-69
2022/11/22 07:33:16;;;;;;;;;;;23.90;51.90;;;;;;5056590;28;19944;-71
2022/11/22 07:35:42;;;;;;;;;;;23.70;52.10;;;;;;5059584;28;20018;-69
2022/11/22 07:38:09;;;;;;;;;;;23.60;52.70;;;;;;5059118;28;19917;-70
2022/11/22 07:40:35;;;;;;;;;;;23.40;52.90;;;;;;5058481;28;19960;-74
2022/11/22 07:43:02;;;;;;;;;;;23.40;52.90;;;;;;5059165;28;19912;-73
2022/11/22 07:45:29;;;;;;;;;;;23.30;53.00;;;;;;5060333;28;19956;-70
2022/11/22 07:47:59;;;;;;;;;;;23.10;53.10;;;;;;5057599;28;19912;-71
2022/11/22 07:50:25;;;;;;;;;;;22.90;53.30;;;;;;5059314;28;19959;-69
2022/11/22 07:52:55;;;;;;;;;;;22.80;53.90;;;;;;5057635;28;20010;-71
2022/11/22 07:55:24;;;;;;;;;;;22.80;54.00;;;;;;5060995;28;19908;-70
2022/11/22 07:57:51;;;;;;;;;;;22.80;54.20;;;;;;5059244;28;19908;-71
2022/11/22 08:00:18;;;;;;;;;;;22.70;54.50;;;;;;5059665;28;20276;-69
2022/11/22 08:02:45;;;;;;;;;;;22.50;54.30;;;;;;5059398;28;19951;-71
2022/11/22 08:05:11;;;;;;;;;;;22.40;54.60;;;;;;5058566;28;19930;-70
2022/11/22 08:07:38;;;;;;;;;;;22.30;54.90;;;;;;5060047;28;20034;-70
2022/11/22 08:10:05;;;;;;;;;;;22.20;55.10;;;;;;5058033;28;20695;-70
2022/11/22 08:12:31;;;;;;;;;;;22.10;55.00;;;;;;5059546;28;19912;-69
2022/11/22 08:14:58;;;;;;;;;;;22.10;55.60;;;;;;5058536;28;19919;-69
2022/11/22 08:17:24;;;;;;;;;;;21.90;55.60;;;;;;5060396;28;19914;-70
2022/11/22 08:19:52;;;;;;;;;;;21.90;55.70;;;;;;5059425;28;19948;-69
2022/11/22 08:22:19;;;;;;;;;;;21.80;55.90;;;;;;5058179;28;19920;-69
2022/11/22 08:24:45;;;;;;;;;;;21.60;56.00;;;;;;5058004;28;19916;-71
2022/11/22 08:27:12;;;;;;;;;;;21.50;56.40;;;;;;5058551;28;19908;-71
2022/11/22 08:29:38;;;;;;;;;;;21.50;56.70;;;;;;5058446;28;19935;-71
2022/11/22 08:32:05;;;;;;;;;;;21.40;56.80;;;;;;5056420;28;20323;-71
2022/11/22 08:34:32;;;;;;;;;;;21.20;57.40;;;;;;5055111;28;20319;-67
2022/11/22 08:36:58;;;;;;;;;;;21.10;57.10;;;;;;5056775;28;20666;-70
2022/11/22 08:39:25;;;;;;;;;;;21.00;57.10;;;;;;5057045;28;19916;-70
2022/11/22 08:41:52;;;;;;;;;;;20.90;57.40;;;;;;5057557;28;19913;-67
2022/11/22 08:44:18;;;;;;;;;;;20.90;57.70;;;;;;5036807;28;20686;-71
2022/11/22 08:46:45;;;;;;;;;;;20.80;57.80;;;;;;5038814;28;19912;-69
2022/11/22 08:49:12;;;;;;;;;;;20.70;58.10;;;;;;5046098;28;20333;-69
2022/11/22 08:51:43;;;;;;;;;;;20.60;58.00;;;;;;5059678;28;19937;-69
2022/11/22 08:54:14;;;;;;;;;;;20.50;58.30;;;;;;5056833;28;20243;-69
2022/11/22 08:56:41;;;;;;;;;;;20.50;58.60;;;;;;5059922;28;19908;-71
2022/11/22 08:59:07;;;;;;;;;;;20.40;58.80;;;;;;5056568;28;19935;-72
2022/11/22 09:01:34;;;;;;;;;;;20.30;59.10;;;;;;5060003;28;19909;-72
2022/11/22 09:04:01;;;;;;;;;;;20.20;59.30;;;;;;5057945;28;19908;-70
2022/11/22 09:06:27;;;;;;;;;;;20.20;59.30;;;;;;5090858;28;19920;-68
2022/11/22 09:08:54;;;;;;;;;;;20.10;59.40;;;;;;5057296;28;19913;-70
2022/11/22 09:11:20;;;;;;;;;;;20.10;59.50;;;;;;5056921;28;19916;-68
2022/11/22 09:13:47;;;;;;;;;;;20.00;59.60;;;;;;5058200;28;19909;-69
2022/11/22 09:16:15;;;;;;;;;;;19.90;59.80;;;;;;5057261;28;19920;-68
2022/11/22 09:18:42;;;;;;;;;;;19.90;59.80;;;;;;5058846;28;20272;-70
2022/11/22 09:21:10;;;;;;;;;;;19.80;60.20;;;;;;5057426;28;19908;-68
2022/11/22 09:23:37;;;;;;;;;;;19.70;60.30;;;;;;5058076;28;20428;-72
2022/11/22 09:26:05;;;;;;;;;;;19.70;60.20;;;;;;5070788;28;19920;-71
2022/11/22 09:28:32;;;;;;;;;;;19.70;60.30;;;;;;5070191;28;20340;-70
2022/11/22 09:31:06;;;;;;;;;;;19.60;60.60;;;;;;5057833;28;20315;-69
2022/11/22 09:33:33;;;;;;;;;;;19.60;60.80;;;;;;5054545;28;19909;-71
2022/11/22 09:36:01;;;;;;;;;;;19.60;60.80;;;;;;5054992;28;19908;-72
2022/11/22 09:38:29;;;;;;;;;;;19.50;60.80;;;;;;5055685;28;19908;-72
2022/11/22 09:40:56;;;;;;;;;;;19.50;61.10;;;;;;5089651;28;19917;-72
2022/11/22 09:43:30;;;;;;;;;;;19.40;61.00;;;;;;5054623;28;19966;-72
2022/11/22 09:46:00;;;;;;;;;;;19.40;61.10;;;;;;5058115;28;19951;-69
2022/11/22 09:48:35;;;;;;;;;;;19.40;61.70;;;;;;5057961;28;20301;-71
2022/11/22 09:51:20;;;;;;;;;;;19.30;61.60;;;;;;5056834;28;20007;-69
2022/11/22 09:53:54;;;;;;;;;;;19.30;61.90;;;;;;5054423;28;19959;-69
2022/11/22 09:56:23;;;;;;;;;;;19.30;61.90;;;;;;5055256;28;19918;-66
2022/11/22 09:58:52;;;;;;;;;;;19.30;62.00;;;;;;5057707;28;20376;-67
2022/11/22 10:01:26;;;;;;;;;;;19.20;62.20;;;;;;5057608;28;19909;-66
2022/11/22 10:03:53;;;;;;;;;;;19.20;62.20;;;;;;5057877;28;19921;-68
2022/11/22 10:06:25;;;;;;;;;;;19.20;62.30;;;;;;5057224;28;19921;-68
2022/11/22 10:08:57;;;;;;;;;;;19.10;62.20;;;;;;5057336;28;20414;-67
2022/11/22 10:11:29;;;;;;;;;;;19.10;62.40;;;;;;5053772;28;19919;-69
2022/11/22 10:13:59;;;;;;;;;;;19.00;62.70;;;;;;5054742;28;20387;-70
2022/11/22 10:16:38;;;;;;;;;;;19.00;63.10;;;;;;5056185;28;19966;-68
2022/11/22 10:19:11;;;;;;;;;;;18.90;63.10;;;;;;5054302;28;19951;-71
2022/11/22 10:21:37;;;;;;;;;;;18.90;63.20;;;;;;5055287;28;19916;-71
2022/11/22 10:24:04;;;;;;;;;;;18.90;63.10;;;;;;5056102;28;19938;-71
2022/11/22 10:26:32;;;;;;;;;;;18.90;63.20;;;;;;5076082;28;19920;-69
2022/11/22 10:28:59;;;;;;;;;;;18.90;63.70;;;;;;5069734;28;19957;-69
2022/11/22 10:31:49;;;;;;;;;;;18.80;64.10;;;;;;5060100;28;19913;-70
2022/11/22 10:34:16;;;;;;;;;;;18.80;64.10;;;;;;5061042;28;19912;-70
2022/11/22 10:36:42;;;;;;;;;;;18.80;63.90;;;;;;5058401;28;19959;-69
2022/11/22 10:39:27;;;;;;;;;;;18.70;64.10;;;;;;5059885;28;19920;-69
2022/11/22 10:42:07;;;;;;;;;;;18.70;64.10;;;;;;5059552;28;19920;-73
2022/11/22 10:44:40;;;;;;;;;;;18.70;64.20;;;;;;5061292;28;19934;-72
2022/11/22 10:47:25;;;;;;;;;;;18.70;64.30;;;;;;5060664;28;19931;-73
2022/11/22 10:50:00;;;;;;;;;;;18.60;63.80;;;;;;5060387;28;19919;-70
2022/11/22 10:52:33;;;;;;;;;;;18.60;64.00;;;;;;5060687;28;19916;-69
2022/11/22 10:55:06;;;;;;;;;;;18.50;63.90;;;;;;5061346;28;19919;-69
2022/11/22 10:57:33;;;;;;;;;;;18.50;64.20;;;;;;5093850;28;19995;-73
2022/11/22 11:00:05;;;;;;;;;;;18.50;65.20;;;;;;5061469;28;19919;-71
2022/11/22 11:02:40;;;;;;;;;;;18.40;64.60;;;;;;5061515;28;20384;-69
2022/11/22 11:05:09;;;;;;;;;;;18.40;64.80;;;;;;5060734;28;20019;-71
2022/11/22 11:07:45;;;;;;;;;;;18.40;65.10;;;;;;5062197;28;19912;-70
2022/11/22 11:10:24;;;;;;;;;;;18.40;64.80;;;;;;5061224;28;20353;-72
2022/11/22 11:12:50;;;;;;;;;;;18.30;64.90;;;;;;5060611;28;19919;-70
2022/11/22 11:15:21;;;;;;;;;;;18.30;65.10;;;;;;5061449;28;19909;-71
2022/11/22 11:17:55;;;;;;;;;;;18.30;65.10;;;;;;5060432;28;19995;-71
2022/11/22 11:20:30;;;;;;;;;;;18.30;65.60;;;;;;5060682;28;20254;-69
2022/11/22 11:22:57;;;;;;;;;;;18.30;65.10;;;;;;5052153;28;19917;-70
2022/11/22 11:25:29;;;;;;;;;;;18.30;65.10;;;;;;5060714;28;20011;-69
2022/11/22 11:27:58;;;;;;;;;;;18.30;65.30;;;;;;5061523;28;20273;-70
2022/11/22 11:30:24;;;;;;;;;;;18.30;65.80;;;;;;5060465;28;19915;-69
2022/11/22 11:32:52;;;;;;;;;;;18.20;66.10;;;;;;5061209;28;19912;-68
2022/11/22 11:35:20;;;;;;;;;;;18.20;66.40;;;;;;5059635;28;19915;-71
2022/11/22 11:37:47;;;;;;;;;;;18.20;66.30;;;;;;5060210;28;20353;-68
2022/11/22 11:40:28;;;;;;;;;;;18.10;66.50;;;;;;5059452;28;19923;-70
2022/11/22 11:43:29;;;;;;;;;;;18.10;66.80;;;;;;5061554;28;19947;-71
2022/11/22 11:46:13;;;;;;;;;;;18.00;66.70;;;;;;5038970;28;19920;-70
2022/11/22 11:48:41;;;;;;;;;;;18.00;67.90;;;;;;5055605;28;19943;-72
2022/11/22 11:51:14;;;;;;;;;;;17.90;67.90;;;;;;5059799;28;19913;-69
2022/11/22 11:53:42;;;;;;;;;;;17.90;67.60;;;;;;5060770;28;19908;-71
2022/11/22 11:56:19;;;;;;;;;;;17.90;67.80;;;;;;5060814;28;19952;-71
2022/11/22 11:58:56;;;;;;;;;;;17.90;67.50;;;;;;5061019;28;19916;-70
2022/11/22 12:01:23;;;;;;;;;;;17.80;66.60;;;;;;5058668;28;19908;-69
2022/11/22 12:03:51;;;;;;;;;;;17.80;66.50;;;;;;5060913;28;19913;-72
2022/11/22 12:06:17;;;;;;;;;;;17.80;66.50;;;;;;5059751;28;19966;-70
2022/11/22 12:08:44;;;;;;;;;;;17.80;67.10;;;;;;5060634;28;19908;-69
2022/11/22 12:11:29;;;;;;;;;;;17.80;67.00;;;;;;5059806;28;20301;-68
2022/11/22 12:14:00;;;;;;;;;;;17.70;67.30;;;;;;5060455;28;19947;-70
2022/11/22 12:16:56;;;;;;;;;;;17.60;67.50;;;;;;5059119;28;20376;-69
2022/11/22 12:19:28;;;;;;;;;;;17.60;67.80;;;;;;5053969;28;20267;-69
2022/11/22 12:22:04;;;;;;;;;;;17.60;68.30;;;;;;5059922;28;19965;-71
2022/11/22 12:24:37;;;;;;;;;;;17.60;68.00;;;;;;5059276;28;19912;-70
2022/11/22 12:27:04;;;;;;;;;;;17.50;69.00;;;;;;5060412;28;19912;-70
2022/11/22 12:29:33;;;;;;;;;;;17.50;69.20;;;;;;5059117;28;19915;-71
2022/11/22 12:32:05;;;;;;;;;;;17.50;69.10;;;;;;5060536;28;20650;-72
2022/11/22 12:34:32;;;;;;;;;;;17.40;69.10;;;;;;5058761;28;19919;-72
2022/11/22 12:37:12;;;;;;;;;;;17.40;69.10;;;;;;5060287;28;19959;-70
2022/11/22 12:39:41;;;;;;;;;;;17.30;68.30;;;;;;5059661;28;19905;-73
2022/11/22 12:42:30;;;;;;;;;;;17.30;69.20;;;;;;5059932;28;19991;-70
2022/11/22 12:45:10;;;;;;;;;;;17.30;69.30;;;;;;5056441;28;20019;-71
2022/11/22 12:47:39;;;;;;;;;;;17.30;69.40;;;;;;5039115;28;19916;-70
2022/11/22 12:50:14;;;;;;;;;;;17.30;69.50;;;;;;5039122;28;19962;-70
2022/11/22 12:52:42;;;;;;;;;;;17.20;70.00;;;;;;5039810;28;20399;-69
2022/11/22 12:55:17;;;;;;;;;;;17.20;69.50;;;;;;5045027;28;20323;-69
2022/11/22 12:57:53;;;;;;;;;;;17.20;69.50;;;;;;5057003;28;20342;-69
2022/11/22 13:00:23;;;;;;;;;;;17.20;69.90;;;;;;5059158;28;20353;-70
2022/11/22 13:02:59;;;;;;;;;;;17.20;70.20;;;;;;5059066;28;19919;-70
2022/11/22 13:05:48;;;;;;;;;;;17.10;70.50;;;;;;5058347;28;19928;-71
2022/11/22 13:08:28;;;;;;;;;;;17.10;69.70;;;;;;5058278;28;19917;-70
2022/11/22 13:11:12;;;;;;;;;;;17.10;70.10;;;;;;5058979;28;19935;-71
2022/11/22 13:13:43;;;;;;;;;;;17.10;70.30;;;;;;5058440;28;19908;-69
2022/11/22 13:16:11;;;;;;;;;;;17.10;70.30;;;;;;5059387;28;19912;-70
2022/11/22 13:18:45;;;;;;;;;;;17.00;70.10;;;;;;5058033;28;19995;-68
2022/11/22 13:21:44;;;;;;;;;;;17.00;70.70;;;;;;5059925;28;20263;-70
2022/11/22 13:24:43;;;;;;;;;;;17.00;71.10;;;;;;5046754;28;20376;-71
2022/11/22 13:27:22;;;;;;;;;;;16.90;70.70;;;;;;5046787;28;19940;-69
2022/11/22 13:29:52;;;;;;;;;;;16.90;70.50;;;;;;5058169;28;19962;-69
2022/11/22 13:32:22;;;;;;;;;;;16.80;71.00;;;;;;5058387;28;19963;-71
2022/11/22 13:35:03;;;;;;;;;;;16.80;71.40;;;;;;5057925;28;19912;-69
2022/11/22 13:37:33;;;;;;;;;;;16.90;71.20;;;;;;5058019;28;19948;-70
2022/11/22 13:40:08;;;;;;;;;;;16.80;70.40;;;;;;5058661;28;19912;-71
2022/11/22 13:42:35;;;;;;;;;;;16.80;71.10;;;;;;5057340;28;19966;-70
2022/11/22 13:45:01;;;;;;;;;;;16.70;71.50;;;;;;5058888;28;20006;-71
2022/11/22 13:47:28;;;;;;;;;;;16.70;71.30;;;;;;5057834;28;19959;-69
2022/11/22 13:49:55;;;;;;;;;;;16.70;71.60;;;;;;5057990;28;20634;-69
2022/11/22 13:52:21;;;;;;;;;;;16.70;72.00;;;;;;5058552;28;19915;-73
2022/11/22 13:54:57;;;;;;;;;;;16.70;72.20;;;;;;5058533;28;19946;-69
2022/11/22 13:57:29;;;;;;;;;;;16.60;72.60;;;;;;5058164;28;19915;-70
2022/11/22 14:00:14;;;;;;;;;;;16.60;72.20;;;;;;5057364;28;19912;-69
2022/11/22 14:02:54;;;;;;;;;;;16.60;71.60;;;;;;5057327;28;19915;-70
2022/11/22 14:05:33;;;;;;;;;;;16.60;72.40;;;;;;5058465;28;19931;-70
2022/11/22 14:08:00;;;;;;;;;;;16.60;72.40;;;;;;5058070;28;20026;-69
2022/11/22 14:10:30;;;;;;;;;;;16.50;73.00;;;;;;5057279;28;19916;-70
2022/11/22 14:13:03;;;;;;;;;;;16.60;73.10;;;;;;5057897;28;20597;-70
2022/11/22 14:15:49;;;;;;;;;;;16.40;72.60;;;;;;5057758;28;19909;-69
2022/11/22 14:18:36;;;;;;;;;;;16.40;72.40;;;;;;5058028;28;19920;-68
2022/11/22 14:21:02;;;;;;;;;;;16.40;73.30;;;;;;5057977;28;19918;-70
2022/11/22 14:23:47;;;;;;;;;;;16.30;73.30;;;;;;5057281;28;19983;-69
2022/11/22 14:26:19;;;;;;;;;;;16.30;73.40;;;;;;5058068;28;20171;-70
2022/11/22 14:28:58;;;;;;;;;;;16.30;73.10;;;;;;5057553;28;19919;-69
2022/11/22 14:31:31;;;;;;;;;;;16.30;72.70;;;;;;5058653;28;19944;-70
2022/11/22 14:34:16;;;;;;;;;;;16.30;73.00;;;;;;5062431;28;19924;-69
2022/11/22 14:36:43;;;;;;;;;;;16.20;73.20;;;;;;5057682;28;20443;-68
2022/11/22 14:39:28;;;;;;;;;;;16.30;73.70;;;;;;5057997;28;19913;-71
2022/11/22 14:41:54;;;;;;;;;;;16.20;73.00;;;;;;5057778;28;19912;-71
2022/11/22 14:44:25;;;;;;;;;;;16.10;73.00;;;;;;5058098;28;20406;-69